Time;durP1;ratioP1;P1;durP2;ratioP2;P2;SDS_P1;SDS_P2;PMS_P1;PMS_P2;Temp;Humidity;BMP_temperature;BMP_pressure;BME280_temperature;BME280_humidity;BME280_pressure;Samples;Min_cycle;Max_cycle;Signal;HPM_P1;HPM_P2
2022/03/04 00:00:34;;;;;;;20.17;11.10;;;0.60;99.90;;;;;;5011724;28;20033;-78
2022/03/04 00:02:59;;;;;;;21.25;11.88;;;0.60;99.90;;;;;;5016394;28;20053;-78
2022/03/04 00:05:33;;;;;;;21.33;11.38;;;0.60;99.90;;;;;;5016466;28;20342;-78
2022/03/04 00:07:59;;;;;;;20.83;11.30;;;0.40;99.90;;;;;;5002697;28;20041;-77
2022/03/04 00:10:25;;;;;;;22.27;11.57;;;0.60;99.90;;;;;;5017224;28;20091;-78
2022/03/04 00:12:53;;;;;;;21.42;11.63;;;0.60;99.90;;;;;;5017904;28;20029;-77
2022/03/04 00:15:22;;;;;;;18.85;10.82;;;0.50;99.90;;;;;;5019228;28;20041;-77
2022/03/04 00:17:48;;;;;;;20.05;12.13;;;0.70;99.90;;;;;;5022202;28;20059;-77
2022/03/04 00:20:17;;;;;;;19.85;11.70;;;0.60;99.90;;;;;;5003660;28;20480;-78
2022/03/04 00:22:45;;;;;;;23.27;12.10;;;0.40;99.90;;;;;;5008688;28;20095;-77
2022/03/04 00:25:11;;;;;;;23.45;12.00;;;0.40;99.90;;;;;;5005972;28;20037;-78
2022/03/04 00:27:37;;;;;;;23.67;12.50;;;0.40;99.90;;;;;;5002947;28;20032;-77
2022/03/04 00:30:04;;;;;;;20.98;11.68;;;0.40;99.90;;;;;;5005720;28;20405;-77
2022/03/04 00:32:30;;;;;;;21.67;12.40;;;0.40;99.90;;;;;;5002061;28;20501;-77
2022/03/04 00:35:07;;;;;;;22.50;11.88;;;0.30;99.90;;;;;;5018251;28;20091;-78
2022/03/04 00:37:33;;;;;;;20.75;11.90;;;0.40;99.90;;;;;;5003037;28;20054;-77
2022/03/04 00:39:59;;;;;;;23.02;12.32;;;0.30;99.90;;;;;;5015786;28;20128;-77
2022/03/04 00:42:27;;;;;;;25.98;12.43;;;0.40;99.90;;;;;;5004755;28;20080;-77
2022/03/04 00:44:53;;;;;;;21.90;12.90;;;0.20;99.90;;;;;;5017334;28;20041;-77
2022/03/04 00:47:19;;;;;;;26.05;12.45;;;0.30;99.90;;;;;;5008060;28;20500;-77
2022/03/04 00:49:44;;;;;;;23.83;12.52;;;0.30;99.90;;;;;;5017317;28;20045;-77
2022/03/04 00:52:10;;;;;;;21.75;12.52;;;0.40;99.90;;;;;;5001576;28;20284;-77
2022/03/04 00:54:36;;;;;;;25.35;13.13;;;0.30;99.90;;;;;;5001954;28;20063;-77
2022/03/04 00:57:01;;;;;;;22.02;12.32;;;0.30;99.90;;;;;;5016594;28;20044;-77
2022/03/04 00:59:27;;;;;;;27.10;13.68;;;0.10;99.90;;;;;;5010485;28;20423;-77
2022/03/04 01:01:53;;;;;;;20.88;11.85;;;0.10;99.90;;;;;;4999998;28;20401;-77
2022/03/04 01:04:18;;;;;;;22.70;13.30;;;0.20;99.90;;;;;;5004143;28;20064;-78
2022/03/04 01:06:44;;;;;;;23.20;13.25;;;0.10;99.90;;;;;;5003560;28;20033;-78
2022/03/04 01:09:10;;;;;;;23.42;13.60;;;0.10;99.90;;;;;;5015108;28;20438;-78
2022/03/04 01:11:37;;;;;;;26.25;14.15;;;0.10;99.90;;;;;;5018807;28;20044;-77
2022/03/04 01:14:11;;;;;;;25.65;13.38;;;0.20;99.90;;;;;;5004943;28;20098;-78
2022/03/04 01:16:37;;;;;;;26.75;13.40;;;0.10;99.90;;;;;;5032494;28;20034;-78
2022/03/04 01:19:03;;;;;;;22.52;12.93;;;0.20;99.90;;;;;;5016126;28;20056;-78
2022/03/04 01:21:32;;;;;;;24.20;13.07;;;0.00;99.90;;;;;;5005349;28;20641;-78
2022/03/04 01:23:58;;;;;;;26.13;12.90;;;0.00;99.90;;;;;;5004922;28;20060;-78
2022/03/04 01:26:23;;;;;;;27.17;14.05;;;0.00;99.90;;;;;;5018693;28;20136;-78
2022/03/04 01:28:49;;;;;;;26.65;13.43;;;0.10;99.90;;;;;;5019417;28;20485;-78
2022/03/04 01:31:18;;;;;;;22.45;13.38;;;0.00;99.90;;;;;;5016850;28;20091;-78
2022/03/04 01:33:46;;;;;;;24.05;13.40;;;-0.10;99.90;;;;;;5004460;28;20086;-78
2022/03/04 01:36:12;;;;;;;25.95;13.52;;;0.00;99.90;;;;;;5017968;28;20084;-78
2022/03/04 01:38:37;;;;;;;24.45;13.98;;;-0.10;99.90;;;;;;5011632;28;20045;-78
2022/03/04 01:41:04;;;;;;;25.33;13.63;;;-0.10;99.90;;;;;;5018024;28;20055;-78
2022/03/04 01:43:29;;;;;;;26.90;15.40;;;0.00;99.90;;;;;;5035708;28;20520;-78
2022/03/04 01:46:11;;;;;;;24.85;13.73;;;-0.20;99.90;;;;;;5007598;28;20139;-78
2022/03/04 01:48:37;;;;;;;28.08;14.75;;;-0.10;99.90;;;;;;5014773;28;20052;-78
2022/03/04 01:51:03;;;;;;;25.50;13.48;;;-0.20;99.90;;;;;;5017986;28;20511;-78
2022/03/04 01:53:28;;;;;;;26.17;14.15;;;-0.30;99.90;;;;;;5014641;28;20086;-78
2022/03/04 01:55:54;;;;;;;25.02;13.95;;;-0.30;99.90;;;;;;5016647;28;20041;-78
2022/03/04 01:58:19;;;;;;;29.00;14.05;;;-0.10;99.90;;;;;;5002145;28;20029;-78
2022/03/04 02:01:03;;;;;;;29.20;15.05;;;-0.20;99.90;;;;;;5014603;28;20083;-78
2022/03/04 02:03:29;;;;;;;27.10;14.20;;;-0.40;99.90;;;;;;5000057;28;20041;-79
2022/03/04 02:05:57;;;;;;;27.95;14.93;;;-0.40;99.90;;;;;;5000006;28;20044;-78
2022/03/04 02:08:25;;;;;;;27.27;14.07;;;-0.30;99.90;;;;;;5004019;28;20075;-78
2022/03/04 02:10:54;;;;;;;29.50;15.70;;;-0.40;99.90;;;;;;4999557;28;20489;-78
2022/03/04 02:13:20;;;;;;;34.25;15.48;;;-0.30;99.90;;;;;;5012607;28;20033;-78
2022/03/04 02:15:47;;;;;;;29.25;15.35;;;-0.50;99.90;;;;;;5016610;28;20444;-78
2022/03/04 02:18:14;;;;;;;31.55;15.30;;;-0.30;99.90;;;;;;5000843;28;20041;-79
2022/03/04 02:20:44;;;;;;;33.17;14.95;;;-0.50;99.90;;;;;;5001750;28;20037;-78
2022/03/04 02:23:13;;;;;;;29.98;15.32;;;-0.60;99.90;;;;;;4996640;28;20037;-79
2022/03/04 02:25:49;;;;;;;29.75;15.70;;;-0.70;99.90;;;;;;5017776;28;20033;-78
2022/03/04 02:28:16;;;;;;;28.58;14.77;;;-0.60;99.90;;;;;;5016474;28;20322;-78
2022/03/04 02:30:41;;;;;;;34.50;15.95;;;-0.50;99.90;;;;;;5000540;28;20045;-78
2022/03/04 02:33:08;;;;;;;29.67;14.95;;;-0.60;99.90;;;;;;4997027;28;20503;-78
2022/03/04 02:35:34;;;;;;;31.58;16.00;;;-0.60;99.90;;;;;;5004637;28;20025;-78
2022/03/04 02:38:01;;;;;;;32.13;15.55;;;-0.70;99.90;;;;;;5036211;28;20060;-78
2022/03/04 02:40:27;;;;;;;32.35;15.77;;;-0.60;99.90;;;;;;4997545;28;20507;-78
2022/03/04 02:42:54;;;;;;;32.22;15.98;;;-0.60;99.90;;;;;;4996121;28;20475;-78
2022/03/04 02:45:20;;;;;;;30.98;15.98;;;-0.60;99.90;;;;;;5000971;28;20112;-78
2022/03/04 02:47:48;;;;;;;32.85;16.58;;;-0.70;99.90;;;;;;5013582;28;20139;-78
2022/03/04 02:50:14;;;;;;;29.83;15.93;;;-0.70;99.90;;;;;;5008427;28;20505;-78
2022/03/04 02:52:40;;;;;;;34.08;17.33;;;-0.60;99.90;;;;;;4999783;28;20119;-78
2022/03/04 02:55:10;;;;;;;38.15;17.45;;;-0.80;99.90;;;;;;5009078;28;20086;-78
2022/03/04 02:57:36;;;;;;;30.35;16.27;;;-0.80;99.90;;;;;;4999639;28;20024;-79
2022/03/04 03:00:04;;;;;;;32.72;16.15;;;-0.70;99.90;;;;;;5001831;28;20625;-78
2022/03/04 03:02:30;;;;;;;34.03;16.65;;;-0.80;99.90;;;;;;5017686;28;20535;-78
2022/03/04 03:04:55;;;;;;;34.70;16.25;;;-0.70;99.90;;;;;;5015791;28;20098;-78
2022/03/04 03:07:21;;;;;;;32.17;16.98;;;-0.70;99.90;;;;;;4998285;28;20061;-78
2022/03/04 03:09:47;;;;;;;39.42;17.45;;;-0.90;99.90;;;;;;5000887;28;20042;-78
2022/03/04 03:12:12;;;;;;;32.67;16.10;;;-0.70;99.90;;;;;;4999970;28;20108;-78
2022/03/04 03:14:38;;;;;;;33.47;16.65;;;-0.80;99.90;;;;;;5015538;28;20115;-78
2022/03/04 03:17:04;;;;;;;33.38;16.20;;;-0.90;99.90;;;;;;5006372;28;20083;-78
2022/03/04 03:19:29;;;;;;;31.55;15.43;;;-0.90;99.90;;;;;;5015842;28;20034;-78
2022/03/04 03:21:58;;;;;;;32.85;16.20;;;-1.00;99.90;;;;;;5017503;28;20484;-78
2022/03/04 03:24:24;;;;;;;38.53;18.05;;;-1.00;99.90;;;;;;5014738;28;20119;-78
2022/03/04 03:26:49;;;;;;;35.78;16.85;;;-0.90;99.90;;;;;;5000186;28;20120;-78
2022/03/04 03:29:15;;;;;;;36.30;17.75;;;-1.00;99.90;;;;;;4999071;28;20369;-78
2022/03/04 03:31:40;;;;;;;37.83;17.85;;;-1.00;99.90;;;;;;4999829;28;20040;-78
2022/03/04 03:34:15;;;;;;;28.15;15.98;;;-0.90;99.90;;;;;;5004743;28;20034;-78
2022/03/04 03:36:41;;;;;;;35.38;17.67;;;-1.00;99.90;;;;;;5014992;28;20210;-78
2022/03/04 03:39:08;;;;;;;35.17;16.70;;;-1.00;99.90;;;;;;5001631;28;20059;-78
2022/03/04 03:41:35;;;;;;;38.40;17.08;;;-1.20;99.90;;;;;;5020638;28;20037;-78
2022/03/04 03:44:06;;;;;;;39.88;18.92;;;-1.20;99.90;;;;;;5023620;28;20044;-78
2022/03/04 03:46:32;;;;;;;32.95;16.00;;;-1.10;99.90;;;;;;5016543;28;20182;-78
2022/03/04 03:48:58;;;;;;;33.42;17.63;;;-1.20;99.90;;;;;;5019950;28;20135;-78
2022/03/04 03:51:24;;;;;;;38.72;18.00;;;-1.20;99.90;;;;;;5015892;28;20045;-79
2022/03/04 03:53:49;;;;;;;37.35;17.95;;;-1.00;99.90;;;;;;5020017;28;20036;-78
2022/03/04 03:56:15;;;;;;;43.08;18.85;;;-1.00;99.90;;;;;;5002297;28;20052;-78
2022/03/04 03:58:41;;;;;;;47.22;20.98;;;-0.80;99.90;;;;;;5004019;28;20279;-78
2022/03/04 04:01:09;;;;;;;41.72;19.17;;;-0.90;99.90;;;;;;5016000;28;20392;-78
2022/03/04 04:03:37;;;;;;;43.17;18.55;;;-0.80;99.90;;;;;;5005500;28;20132;-78
2022/03/04 04:06:03;;;;;;;43.05;19.30;;;-0.80;99.90;;;;;;5005206;28;20127;-79
2022/03/04 04:08:29;;;;;;;42.60;19.60;;;-0.70;99.90;;;;;;5007173;28;20033;-78
2022/03/04 04:10:55;;;;;;;43.80;19.77;;;-0.80;99.90;;;;;;5004588;28;20481;-78
2022/03/04 04:13:21;;;;;;;42.90;20.92;;;-0.60;99.90;;;;;;5019881;28;20213;-78
2022/03/04 04:15:49;;;;;;;46.30;20.17;;;-0.60;99.90;;;;;;5004782;28;20037;-79
2022/03/04 04:18:15;;;;;;;42.75;19.23;;;-0.70;99.90;;;;;;5004768;28;20037;-78
2022/03/04 04:20:40;;;;;;;43.95;19.92;;;-0.60;99.90;;;;;;5006500;28;20744;-78
2022/03/04 04:23:06;;;;;;;42.85;19.77;;;-0.50;99.90;;;;;;5020855;28;20040;-78
2022/03/04 04:25:32;;;;;;;51.95;20.27;;;-0.50;99.90;;;;;;5019251;28;20205;-79
2022/03/04 04:27:57;;;;;;;44.92;20.35;;;-0.40;99.90;;;;;;5007297;28;20059;-78
2022/03/04 04:30:24;;;;;;;44.78;19.13;;;-0.40;99.90;;;;;;5001502;28;20472;-78
2022/03/04 04:32:49;;;;;;;43.28;19.67;;;-0.50;99.90;;;;;;5007250;28;20112;-79
2022/03/04 04:35:15;;;;;;;41.08;19.10;;;-0.60;99.90;;;;;;5020727;28;20040;-78
2022/03/04 04:37:44;;;;;;;43.42;19.80;;;-0.50;99.90;;;;;;5002873;28;20080;-78
2022/03/04 04:40:12;;;;;;;41.78;19.60;;;-0.60;99.90;;;;;;4999199;28;20083;-79
2022/03/04 04:42:38;;;;;;;49.45;20.73;;;-0.50;99.90;;;;;;5020475;28;20495;-78
2022/03/04 04:45:04;;;;;;;50.50;20.45;;;-0.40;99.90;;;;;;5005057;28;20071;-78
2022/03/04 04:47:30;;;;;;;50.47;20.90;;;-0.50;99.90;;;;;;5005434;28;20053;-78
2022/03/04 04:49:56;;;;;;;47.78;19.98;;;-0.60;99.90;;;;;;5016437;28;20408;-79
2022/03/04 04:52:24;;;;;;;46.50;19.90;;;-0.50;99.90;;;;;;5004475;28;20040;-79
2022/03/04 04:54:50;;;;;;;40.53;19.48;;;-0.40;99.90;;;;;;5016153;28;20381;-79
2022/03/04 04:57:15;;;;;;;46.90;20.10;;;-0.40;99.90;;;;;;5004315;28;20033;-79
2022/03/04 04:59:41;;;;;;;42.47;20.25;;;-0.40;99.90;;;;;;5002915;28;20083;-78
2022/03/04 05:02:07;;;;;;;45.05;20.95;;;-0.50;99.90;;;;;;5020532;28;20107;-79
2022/03/04 05:04:32;;;;;;;44.45;19.48;;;-0.50;99.90;;;;;;5017431;28;20037;-79
2022/03/04 05:06:58;;;;;;;40.83;19.58;;;-0.40;99.90;;;;;;4996771;28;20030;-79
2022/03/04 05:09:24;;;;;;;44.67;21.05;;;-0.40;99.90;;;;;;5006995;28;20470;-79
2022/03/04 05:11:49;;;;;;;45.50;20.10;;;-0.60;99.90;;;;;;5004400;28;20064;-78
2022/03/04 05:14:15;;;;;;;44.78;20.83;;;-0.50;99.90;;;;;;5005637;28;20037;-79
2022/03/04 05:16:41;;;;;;;48.30;21.77;;;-0.40;99.90;;;;;;5009225;28;20036;-78
2022/03/04 05:19:07;;;;;;;43.88;20.73;;;-0.40;99.90;;;;;;5005197;28;20029;-78
2022/03/04 05:21:34;;;;;;;42.97;20.05;;;-0.50;99.90;;;;;;5017084;28;20029;-79
2022/03/04 05:24:00;;;;;;;44.83;19.80;;;-0.50;99.90;;;;;;5006787;28;20161;-79
2022/03/04 05:26:27;;;;;;;42.75;20.17;;;-0.30;99.90;;;;;;5024079;28;20416;-79
2022/03/04 05:28:54;;;;;;;43.45;20.70;;;-0.20;99.90;;;;;;5005520;28;20037;-79
2022/03/04 05:31:20;;;;;;;47.47;20.98;;;-0.20;99.90;;;;;;5016325;28;20289;-79
2022/03/04 05:33:45;;;;;;;47.33;21.63;;;-0.30;99.90;;;;;;5006488;28;20542;-79
2022/03/04 05:36:11;;;;;;;42.60;20.48;;;-0.20;99.90;;;;;;5004211;28;20500;-79
2022/03/04 05:38:37;;;;;;;42.70;20.08;;;-0.30;99.90;;;;;;5015365;28;20102;-78
2022/03/04 05:41:02;;;;;;;43.17;21.33;;;-0.40;99.90;;;;;;4996692;28;20041;-78
2022/03/04 05:43:28;;;;;;;49.00;21.20;;;-0.30;99.90;;;;;;5014802;28;20040;-79
2022/03/04 05:45:54;;;;;;;44.85;21.05;;;-0.20;99.90;;;;;;5012752;28;20073;-79
2022/03/04 05:48:19;;;;;;;39.55;20.35;;;-0.20;99.90;;;;;;5022592;28;20354;-79
2022/03/04 05:50:45;;;;;;;37.50;19.77;;;-0.30;99.90;;;;;;5021373;28;20044;-79
2022/03/04 05:53:11;;;;;;;45.10;21.52;;;-0.40;99.90;;;;;;5000202;28;20311;-79
2022/03/04 05:55:37;;;;;;;46.70;20.77;;;-0.20;99.90;;;;;;5015308;28;20047;-79
2022/03/04 05:58:03;;;;;;;44.22;20.33;;;-0.20;99.90;;;;;;4997189;28;20044;-78
2022/03/04 06:00:29;;;;;;;41.00;19.63;;;-0.30;99.90;;;;;;5021643;28;20392;-78
2022/03/04 06:02:55;;;;;;;46.03;21.30;;;-0.40;99.90;;;;;;5002859;28;20045;-78
2022/03/04 06:05:21;;;;;;;38.15;19.65;;;-0.20;99.90;;;;;;5018541;28;20716;-79
2022/03/04 06:07:47;;;;;;;43.50;20.98;;;-0.20;99.90;;;;;;5012836;28;20045;-78
2022/03/04 06:10:13;;;;;;;43.65;20.90;;;-0.20;99.90;;;;;;5014742;28;20040;-79
2022/03/04 06:12:39;;;;;;;39.80;20.10;;;-0.40;99.90;;;;;;5016796;28;20319;-79
2022/03/04 06:15:05;;;;;;;42.72;19.85;;;-0.40;99.90;;;;;;5001029;28;20091;-78
2022/03/04 06:17:31;;;;;;;39.58;20.15;;;-0.40;99.90;;;;;;5002385;28;20037;-78
2022/03/04 06:19:56;;;;;;;42.95;20.73;;;-0.30;99.90;;;;;;4997892;28;20044;-79
2022/03/04 06:22:22;;;;;;;40.72;19.55;;;-0.40;99.90;;;;;;5004506;28;20264;-78
2022/03/04 06:24:48;;;;;;;39.67;19.95;;;-0.40;99.90;;;;;;5015976;28;20040;-78
2022/03/04 06:27:14;;;;;;;40.53;19.83;;;-0.20;99.90;;;;;;4999600;28;20052;-79
2022/03/04 06:29:40;;;;;;;43.85;20.20;;;-0.30;99.90;;;;;;5002561;28;20092;-79
2022/03/04 06:32:06;;;;;;;42.45;20.23;;;-0.10;99.90;;;;;;4998575;28;20052;-79
2022/03/04 06:34:32;;;;;;;43.45;21.40;;;-0.10;99.90;;;;;;5004734;28;20024;-79
2022/03/04 06:36:58;;;;;;;39.05;19.83;;;-0.10;99.90;;;;;;5016551;28;20443;-79
2022/03/04 06:39:24;;;;;;;38.80;20.00;;;-0.10;99.90;;;;;;5016080;28;20061;-79
2022/03/04 06:41:49;;;;;;;40.78;19.75;;;0.00;99.90;;;;;;5004223;28;20045;-79
2022/03/04 06:44:15;;;;;;;42.47;19.98;;;-0.20;99.90;;;;;;5002582;28;20063;-78
2022/03/04 06:46:41;;;;;;;40.50;20.10;;;0.00;99.90;;;;;;5012351;28;20036;-79
2022/03/04 06:49:10;;;;;;;39.33;20.05;;;-0.10;99.90;;;;;;5002467;28;20029;-78
2022/03/04 06:51:40;;;;;;;41.83;20.98;;;-0.10;99.90;;;;;;5018480;28;20105;-79
2022/03/04 06:54:07;;;;;;;39.65;19.83;;;-0.10;99.90;;;;;;5001799;28;20562;-79
2022/03/04 06:56:32;;;;;;;37.97;20.02;;;0.00;99.90;;;;;;5013870;28;20037;-79
2022/03/04 06:58:58;;;;;;;39.15;19.73;;;0.10;99.90;;;;;;5024567;28;20103;-79
2022/03/04 07:01:24;;;;;;;36.17;20.40;;;0.10;99.90;;;;;;5003017;28;20233;-79
2022/03/04 07:03:50;;;;;;;38.22;20.33;;;0.00;99.90;;;;;;5004941;28;20041;-79
2022/03/04 07:06:19;;;;;;;40.20;19.77;;;0.20;99.90;;;;;;5002386;28;20045;-79
2022/03/04 07:08:45;;;;;;;34.72;19.10;;;0.10;99.90;;;;;;5018240;28;20040;-78
2022/03/04 07:11:11;;;;;;;34.42;19.13;;;0.20;99.90;;;;;;5015858;28;20049;-79
2022/03/04 07:13:36;;;;;;;38.63;19.70;;;0.30;99.90;;;;;;5013315;28;20037;-78
2022/03/04 07:16:03;;;;;;;34.13;17.83;;;0.10;99.90;;;;;;4998098;28;20528;-78
2022/03/04 07:18:31;;;;;;;34.28;18.75;;;0.10;99.90;;;;;;5005139;28;20133;-79
2022/03/04 07:21:01;;;;;;;33.30;17.88;;;0.10;99.90;;;;;;5001520;28;20496;-79
2022/03/04 07:23:27;;;;;;;34.70;18.95;;;0.10;99.90;;;;;;4995011;28;20044;-79
2022/03/04 07:25:53;;;;;;;30.98;16.30;;;0.20;99.90;;;;;;5016491;28;20136;-79
2022/03/04 07:28:21;;;;;;;35.58;19.35;;;0.40;99.90;;;;;;5001395;28;20128;-78
2022/03/04 07:30:47;;;;;;;35.92;18.38;;;0.30;99.90;;;;;;5006343;28;20510;-78
2022/03/04 07:33:13;;;;;;;33.20;18.30;;;0.40;99.90;;;;;;5001967;28;20750;-78
2022/03/04 07:35:44;;;;;;;32.53;17.33;;;0.50;99.90;;;;;;5001330;28;20252;-78
2022/03/04 07:38:14;;;;;;;33.90;18.20;;;0.50;99.90;;;;;;4994466;28;20037;-78
2022/03/04 07:40:39;;;;;;;30.95;18.50;;;0.40;99.90;;;;;;5007613;28;20064;-78
2022/03/04 07:43:05;;;;;;;33.03;17.95;;;0.20;99.90;;;;;;5011242;28;20032;-78
2022/03/04 07:45:31;;;;;;;31.67;16.70;;;0.30;99.90;;;;;;5020643;28;20501;-78
2022/03/04 07:47:57;;;;;;;32.50;18.00;;;0.40;99.90;;;;;;4993156;28;20052;-78
2022/03/04 07:50:23;;;;;;;31.27;17.30;;;0.50;99.90;;;;;;5005243;28;20120;-78
2022/03/04 07:52:48;;;;;;;36.17;19.08;;;0.50;99.90;;;;;;5010788;28;20287;-78
2022/03/04 07:55:15;;;;;;;31.73;17.80;;;0.40;99.90;;;;;;4991910;28;20638;-78
2022/03/04 07:57:41;;;;;;;30.85;17.70;;;0.60;99.90;;;;;;4998460;28;20044;-79
2022/03/04 08:00:10;;;;;;;34.28;18.13;;;0.60;99.90;;;;;;4992678;28;20468;-78
2022/03/04 08:02:37;;;;;;;32.40;17.85;;;0.70;99.90;;;;;;4996958;28;20052;-78
2022/03/04 08:05:03;;;;;;;33.58;18.63;;;0.60;99.90;;;;;;4996850;28;20481;-78
2022/03/04 08:07:28;;;;;;;34.22;18.17;;;0.80;99.90;;;;;;5004945;28;20076;-78
2022/03/04 08:09:54;;;;;;;30.52;17.65;;;0.70;99.90;;;;;;5008935;28;20069;-78
2022/03/04 08:12:20;;;;;;;31.60;18.58;;;0.80;99.90;;;;;;4990614;28;20039;-78
2022/03/04 08:14:46;;;;;;;32.03;18.20;;;0.90;99.90;;;;;;5019003;28;20041;-78
2022/03/04 08:17:12;;;;;;;30.58;17.55;;;0.90;99.90;;;;;;5005458;28;20123;-78
2022/03/04 08:19:39;;;;;;;33.88;18.25;;;1.00;99.90;;;;;;4994527;28;20116;-78
2022/03/04 08:22:05;;;;;;;32.45;18.58;;;1.20;99.90;;;;;;5004528;28;20115;-78
2022/03/04 08:24:31;;;;;;;30.52;17.90;;;1.10;99.90;;;;;;5008731;28;20500;-78
2022/03/04 08:26:57;;;;;;;34.25;18.50;;;1.30;99.90;;;;;;5006396;28;20287;-79
2022/03/04 08:29:26;;;;;;;31.20;17.50;;;1.40;99.90;;;;;;4987866;28;20610;-78
2022/03/04 08:31:52;;;;;;;33.05;18.98;;;1.40;99.90;;;;;;5000465;28;20037;-78
2022/03/04 08:34:18;;;;;;;33.28;19.10;;;1.20;99.90;;;;;;5014939;28;20205;-78
2022/03/04 08:36:44;;;;;;;32.83;18.77;;;1.40;99.90;;;;;;5010939;28;20101;-78
2022/03/04 08:39:10;;;;;;;35.88;19.95;;;1.50;99.90;;;;;;5006286;28;20037;-78
2022/03/04 08:41:35;;;;;;;36.42;20.67;;;1.60;99.90;;;;;;5004625;28;20044;-77
2022/03/04 08:44:02;;;;;;;33.85;18.85;;;1.70;99.90;;;;;;5006920;28;20053;-78
2022/03/04 08:46:30;;;;;;;35.58;19.77;;;1.90;99.90;;;;;;5003859;28;20120;-78
2022/03/04 08:48:56;;;;;;;31.58;18.20;;;1.90;99.90;;;;;;5016537;28;20044;-78
2022/03/04 08:51:25;;;;;;;35.30;19.02;;;1.80;99.90;;;;;;5000599;28;20045;-78
2022/03/04 08:53:52;;;;;;;31.30;18.40;;;2.00;99.90;;;;;;5021074;28;20033;-78
2022/03/04 08:56:17;;;;;;;30.15;18.10;;;2.00;99.90;;;;;;5018793;28;20189;-78
2022/03/04 08:58:43;;;;;;;34.95;19.25;;;2.10;99.90;;;;;;5021814;28;20119;-78
2022/03/04 09:01:09;;;;;;;30.85;17.83;;;2.20;99.90;;;;;;5015929;28;20049;-79
2022/03/04 09:03:35;;;;;;;32.60;18.50;;;2.40;99.90;;;;;;5021626;28;20041;-78
2022/03/04 09:06:01;;;;;;;30.65;18.83;;;2.50;99.90;;;;;;5001913;28;20048;-78
2022/03/04 09:08:26;;;;;;;29.65;16.90;;;2.60;99.90;;;;;;5004815;28;20037;-78
2022/03/04 09:10:52;;;;;;;28.90;18.13;;;2.60;99.90;;;;;;5017800;28;20065;-78
2022/03/04 09:13:18;;;;;;;29.70;17.20;;;2.70;99.90;;;;;;5020351;28;20431;-78
2022/03/04 09:15:44;;;;;;;27.80;17.38;;;2.70;99.90;;;;;;5003567;28;20047;-78
2022/03/04 09:18:09;;;;;;;27.17;16.88;;;2.70;99.90;;;;;;5001083;28;20029;-79
2022/03/04 09:20:35;;;;;;;27.35;16.65;;;2.80;99.90;;;;;;5003373;28;20504;-78
2022/03/04 09:23:01;;;;;;;28.08;17.25;;;2.90;99.90;;;;;;5017154;28;20544;-78
2022/03/04 09:25:27;;;;;;;26.35;16.77;;;2.90;99.90;;;;;;5017551;28;20234;-78
2022/03/04 09:27:56;;;;;;;27.52;16.85;;;2.90;99.90;;;;;;5018762;28;20048;-78
2022/03/04 09:30:22;;;;;;;26.38;16.77;;;3.20;99.90;;;;;;5017671;28;20476;-78
2022/03/04 09:32:47;;;;;;;26.83;16.02;;;3.50;99.90;;;;;;5011097;28;20117;-78
2022/03/04 09:35:13;;;;;;;24.98;15.80;;;3.80;99.90;;;;;;5005825;28;20542;-78
2022/03/04 09:37:42;;;;;;;23.58;15.50;;;3.90;99.90;;;;;;5003954;28;20053;-78
2022/03/04 09:40:14;;;;;;;23.90;14.82;;;3.80;99.90;;;;;;5002338;28;20059;-78
2022/03/04 09:42:40;;;;;;;26.42;15.65;;;3.70;99.90;;;;;;5019480;28;20099;-78
2022/03/04 09:45:06;;;;;;;25.85;17.08;;;3.70;99.90;;;;;;5004435;28;20078;-78
2022/03/04 09:47:32;;;;;;;26.00;17.05;;;3.60;99.90;;;;;;5001934;28;20044;-78
2022/03/04 09:49:58;;;;;;;23.10;15.43;;;3.60;99.90;;;;;;5018656;28;20049;-78
2022/03/04 09:52:25;;;;;;;25.45;16.13;;;3.40;99.90;;;;;;5013704;28;20121;-78
2022/03/04 09:54:52;;;;;;;23.02;14.63;;;3.90;99.90;;;;;;5015517;28;20074;-77
2022/03/04 09:57:18;;;;;;;25.80;15.90;;;3.70;99.90;;;;;;5015657;28;20428;-78
2022/03/04 09:59:44;;;;;;;22.17;14.20;;;4.00;99.90;;;;;;5025218;28;20044;-77
2022/03/04 10:02:14;;;;;;;19.70;13.60;;;4.00;99.90;;;;;;5016712;28;21277;-78
2022/03/04 10:04:41;;;;;;;22.35;14.30;;;4.10;99.90;;;;;;5002948;28;20037;-78
2022/03/04 10:07:17;;;;;;;24.55;14.57;;;3.70;99.90;;;;;;5018625;28;20032;-78
2022/03/04 10:09:44;;;;;;;24.85;14.77;;;3.60;99.90;;;;;;5011620;28;20033;-78
2022/03/04 10:12:11;;;;;;;22.45;14.82;;;3.50;99.90;;;;;;4997657;28;20293;-78
2022/03/04 10:15:04;;;;;;;23.15;15.30;;;3.80;99.90;;;;;;4999967;28;20190;-78
2022/03/04 10:17:34;;;;;;;27.85;15.18;;;3.70;99.90;;;;;;5005302;28;20395;-78
2022/03/04 10:20:04;;;;;;;27.20;14.82;;;4.00;99.90;;;;;;5015560;28;20053;-78
2022/03/04 10:22:42;;;;;;;25.90;16.15;;;4.00;99.90;;;;;;5012831;28;20029;-78
2022/03/04 10:25:24;;;;;;;24.85;14.88;;;4.30;99.90;;;;;;5001874;28;20048;-78
2022/03/04 10:27:50;;;;;;;25.23;15.57;;;4.40;99.90;;;;;;5001977;28;20051;-78
2022/03/04 10:30:27;;;;;;;27.58;16.02;;;4.30;99.90;;;;;;5017187;28;20036;-79
2022/03/04 10:33:07;;;;;;;23.67;16.27;;;4.40;99.90;;;;;;5033415;28;20064;-78
2022/03/04 10:35:33;;;;;;;24.75;15.25;;;4.40;99.90;;;;;;5024491;28;20064;-78
2022/03/04 10:37:59;;;;;;;23.48;15.55;;;4.50;99.90;;;;;;5010824;28;20354;-79
2022/03/04 10:40:35;;;;;;;24.20;15.80;;;4.70;99.90;;;;;;5017801;28;20108;-78
2022/03/04 10:43:04;;;;;;;26.27;17.02;;;4.60;99.90;;;;;;5017377;28;20122;-78
2022/03/04 10:45:41;;;;;;;24.70;16.02;;;4.80;99.90;;;;;;5001524;28;20266;-78
2022/03/04 10:48:17;;;;;;;25.30;15.65;;;5.10;99.90;;;;;;5011053;28;20037;-78
2022/03/04 10:50:55;;;;;;;23.75;16.25;;;5.10;99.90;;;;;;5013106;28;20538;-79
2022/03/04 10:53:28;;;;;;;23.70;15.45;;;5.30;99.90;;;;;;5001406;28;20074;-78
2022/03/04 10:55:56;;;;;;;29.25;15.60;;;5.60;99.90;;;;;;5018626;28;20056;-78
2022/03/04 10:58:30;;;;;;;22.52;15.82;;;5.70;99.90;;;;;;4999966;28;20144;-79
2022/03/04 11:01:02;;;;;;;25.10;15.68;;;5.70;99.90;;;;;;5006174;28;20041;-79
2022/03/04 11:03:34;;;;;;;25.88;15.43;;;5.80;99.90;;;;;;5002621;28;20033;-79
2022/03/04 11:06:18;;;;;;;23.58;15.25;;;6.00;99.90;;;;;;5013648;28;20044;-79
2022/03/04 11:08:44;;;;;;;23.02;15.95;;;6.10;99.90;;;;;;5012016;28;20102;-79
2022/03/04 11:11:11;;;;;;;23.67;16.20;;;6.10;99.90;;;;;;5001121;28;20087;-79
2022/03/04 11:13:37;;;;;;;24.42;16.08;;;6.30;99.90;;;;;;5019421;28;20030;-79
2022/03/04 11:16:08;;;;;;;23.08;15.93;;;6.40;99.90;;;;;;5015738;28;20039;-79
2022/03/04 11:18:35;;;;;;;22.33;15.52;;;6.40;99.90;;;;;;5016111;28;20048;-79
2022/03/04 11:21:07;;;;;;;21.42;15.43;;;6.50;93.30;;;;;;5014474;28;20532;-79
2022/03/04 11:23:35;;;;;;;23.45;15.68;;;6.50;76.20;;;;;;5032493;28;20196;-79
2022/03/04 11:26:09;;;;;;;22.92;15.18;;;6.40;49.30;;;;;;5018173;28;20764;-79
2022/03/04 11:28:42;;;;;;;20.23;15.30;;;6.50;67.40;;;;;;5016014;28;20122;-79
2022/03/04 11:31:12;;;;;;;25.25;16.25;;;6.60;94.20;;;;;;4999730;28;20064;-79
2022/03/04 11:33:44;;;;;;;23.95;15.45;;;7.00;99.90;;;;;;5003984;28;20489;-79
2022/03/04 11:36:22;;;;;;;23.67;15.85;;;7.10;80.40;;;;;;5001679;28;20083;-79
2022/03/04 11:38:53;;;;;;;21.20;14.80;;;7.20;63.60;;;;;;4995209;28;20049;-79
2022/03/04 11:41:34;;;;;;;21.77;14.70;;;7.30;25.40;;;;;;4995282;28;20670;-79
2022/03/04 11:44:23;;;;;;;21.73;15.07;;;7.30;45.30;;;;;;5013787;28;20052;-79
2022/03/04 11:47:00;;;;;;;18.80;13.55;;;7.40;27.00;;;;;;5001391;28;20073;-79
2022/03/04 11:49:49;;;;;;;23.88;14.75;;;7.50;1.00;;;;;;5000177;28;20439;-79
2022/03/04 11:52:21;;;;;;;25.17;14.60;;;7.50;19.70;;;;;;5012726;28;20148;-79
2022/03/04 11:54:50;;;;;;;24.33;15.13;;;7.70;2.40;;;;;;5017334;28;20029;-79
2022/03/04 11:57:24;;;;;;;32.22;15.32;;;7.90;1.00;;;;;;5016008;28;20033;-79
2022/03/04 11:59:50;;;;;;;29.05;14.93;;;8.00;1.00;;;;;;5013243;28;20315;-79
2022/03/04 12:02:38;;;;;;;22.23;14.73;;;8.20;1.00;;;;;;5019416;28;20044;-79
2022/03/04 12:05:21;;;;;;;20.88;14.38;;;8.20;1.00;;;;;;5024275;28;20148;-79
2022/03/04 12:07:54;;;;;;;21.52;13.85;;;8.30;1.00;;;;;;5025215;28;20057;-79
2022/03/04 12:10:27;;;;;;;26.88;14.23;;;8.30;1.00;;;;;;5006765;28;20068;-79
2022/03/04 12:12:58;;;;;;;20.77;12.90;;;8.30;1.00;;;;;;5006174;28;20473;-79
2022/03/04 12:15:39;;;;;;;20.33;13.60;;;8.70;1.00;;;;;;5015189;28;20384;-79
2022/03/04 12:18:25;;;;;;;21.55;13.73;;;8.60;99.90;;;;;;5031495;28;20041;-79
2022/03/04 12:21:14;;;;;;;17.10;12.02;;;8.90;1.00;;;;;;5015025;28;20106;-79
2022/03/04 12:23:41;;;;;;;20.98;12.98;;;8.90;1.00;;;;;;5029739;28;20040;-79
2022/03/04 12:26:22;;;;;;;17.65;12.68;;;8.80;99.90;;;;;;5013476;28;20220;-79
2022/03/04 12:28:51;;;;;;;18.83;13.30;;;8.90;99.90;;;;;;5020312;28;20184;-80
2022/03/04 12:31:26;;;;;;;21.20;14.18;;;9.20;99.90;;;;;;5023785;28;20044;-79
2022/03/04 12:33:57;;;;;;;19.75;12.93;;;9.10;99.90;;;;;;5003242;28;20049;-79
2022/03/04 12:36:26;;;;;;;18.63;12.95;;;9.10;99.90;;;;;;5017842;28;20278;-79